sensor_id;sensor_type;location;lat;lon;timestamp;P1;durP1;ratioP1;P2;durP2;ratioP2
3718;SDS011;1875;52.492;6.860;2023-11-19T00:00:26;27.65;;;11.77;;
3718;SDS011;1875;52.492;6.860;2023-11-19T00:02:54;26.80;;;10.93;;
3718;SDS011;1875;52.492;6.860;2023-11-19T00:05:22;28.17;;;12.10;;
3718;SDS011;1875;52.492;6.860;2023-11-19T00:07:50;28.95;;;12.07;;
3718;SDS011;1875;52.492;6.860;2023-11-19T00:10:18;32.38;;;13.48;;
3718;SDS011;1875;52.492;6.860;2023-11-19T00:12:47;27.75;;;12.40;;
3718;SDS011;1875;52.492;6.860;2023-11-19T00:15:17;33.33;;;14.38;;
3718;SDS011;1875;52.492;6.860;2023-11-19T00:17:46;30.88;;;13.07;;
3718;SDS011;1875;52.492;6.860;2023-11-19T00:20:17;33.15;;;12.55;;
3718;SDS011;1875;52.492;6.860;2023-11-19T00:22:46;29.63;;;12.25;;
3718;SDS011;1875;52.492;6.860;2023-11-19T00:25:17;36.08;;;15.55;;
3718;SDS011;1875;52.492;6.860;2023-11-19T00:27:45;30.08;;;13.57;;
3718;SDS011;1875;52.492;6.860;2023-11-19T00:30:14;34.70;;;13.02;;
3718;SDS011;1875;52.492;6.860;2023-11-19T00:32:44;33.70;;;15.00;;
3718;SDS011;1875;52.492;6.860;2023-11-19T00:35:13;30.30;;;13.18;;
3718;SDS011;1875;52.492;6.860;2023-11-19T00:37:42;36.85;;;15.68;;
3718;SDS011;1875;52.492;6.860;2023-11-19T00:40:12;38.28;;;15.60;;
3718;SDS011;1875;52.492;6.860;2023-11-19T00:42:43;38.78;;;16.27;;
3718;SDS011;1875;52.492;6.860;2023-11-19T00:45:11;37.40;;;13.93;;
3718;SDS011;1875;52.492;6.860;2023-11-19T00:47:39;39.55;;;16.05;;
3718;SDS011;1875;52.492;6.860;2023-11-19T00:50:10;38.45;;;16.98;;
3718;SDS011;1875;52.492;6.860;2023-11-19T00:52:38;31.17;;;14.57;;
3718;SDS011;1875;52.492;6.860;2023-11-19T00:55:06;43.60;;;16.92;;
3718;SDS011;1875;52.492;6.860;2023-11-19T00:57:35;37.55;;;16.83;;
3718;SDS011;1875;52.492;6.860;2023-11-19T01:00:03;40.20;;;16.77;;
3718;SDS011;1875;52.492;6.860;2023-11-19T01:02:36;41.90;;;17.48;;
3718;SDS011;1875;52.492;6.860;2023-11-19T01:05:04;43.42;;;19.50;;
3718;SDS011;1875;52.492;6.860;2023-11-19T01:07:37;41.38;;;17.77;;
3718;SDS011;1875;52.492;6.860;2023-11-19T01:10:06;50.15;;;19.95;;
3718;SDS011;1875;52.492;6.860;2023-11-19T01:12:35;43.88;;;17.33;;
3718;SDS011;1875;52.492;6.860;2023-11-19T01:17:33;46.10;;;16.88;;
3718;SDS011;1875;52.492;6.860;2023-11-19T01:20:02;49.55;;;18.92;;
3718;SDS011;1875;52.492;6.860;2023-11-19T01:22:32;49.70;;;18.10;;
3718;SDS011;1875;52.492;6.860;2023-11-19T01:25:02;44.35;;;17.77;;
3718;SDS011;1875;52.492;6.860;2023-11-19T01:27:32;45.65;;;18.65;;
3718;SDS011;1875;52.492;6.860;2023-11-19T01:30:02;43.97;;;18.45;;
3718;SDS011;1875;52.492;6.860;2023-11-19T01:32:32;47.70;;;15.80;;
3718;SDS011;1875;52.492;6.860;2023-11-19T01:35:00;48.60;;;19.35;;
3718;SDS011;1875;52.492;6.860;2023-11-19T01:37:29;41.53;;;17.15;;
3718;SDS011;1875;52.492;6.860;2023-11-19T01:39:58;51.92;;;17.45;;
3718;SDS011;1875;52.492;6.860;2023-11-19T01:42:27;50.00;;;16.95;;
3718;SDS011;1875;52.492;6.860;2023-11-19T01:47:24;40.58;;;16.67;;
3718;SDS011;1875;52.492;6.860;2023-11-19T01:49:54;49.22;;;19.20;;
3718;SDS011;1875;52.492;6.860;2023-11-19T01:52:22;48.67;;;16.35;;
3718;SDS011;1875;52.492;6.860;2023-11-19T01:54:51;46.03;;;18.63;;
3718;SDS011;1875;52.492;6.860;2023-11-19T01:57:19;39.03;;;15.95;;
3718;SDS011;1875;52.492;6.860;2023-11-19T01:59:49;45.25;;;17.70;;
3718;SDS011;1875;52.492;6.860;2023-11-19T02:02:17;38.45;;;16.58;;
3718;SDS011;1875;52.492;6.860;2023-11-19T02:04:47;41.17;;;15.93;;
3718;SDS011;1875;52.492;6.860;2023-11-19T02:07:17;37.80;;;16.63;;
3718;SDS011;1875;52.492;6.860;2023-11-19T02:09:45;39.20;;;15.80;;
3718;SDS011;1875;52.492;6.860;2023-11-19T02:12:13;43.40;;;15.57;;
3718;SDS011;1875;52.492;6.860;2023-11-19T02:14:41;43.03;;;16.42;;
3718;SDS011;1875;52.492;6.860;2023-11-19T02:20:03;44.60;;;14.20;;
3718;SDS011;1875;52.492;6.860;2023-11-19T02:22:34;36.25;;;13.73;;
3718;SDS011;1875;52.492;6.860;2023-11-19T02:25:04;42.38;;;14.02;;
3718;SDS011;1875;52.492;6.860;2023-11-19T02:27:41;44.25;;;14.20;;
3718;SDS011;1875;52.492;6.860;2023-11-19T02:30:12;40.05;;;14.05;;
3718;SDS011;1875;52.492;6.860;2023-11-19T02:32:41;42.65;;;13.85;;
3718;SDS011;1875;52.492;6.860;2023-11-19T02:35:09;44.20;;;15.00;;
3718;SDS011;1875;52.492;6.860;2023-11-19T02:37:38;40.88;;;12.88;;
3718;SDS011;1875;52.492;6.860;2023-11-19T02:40:06;39.67;;;13.43;;
3718;SDS011;1875;52.492;6.860;2023-11-19T02:42:36;37.25;;;13.30;;
3718;SDS011;1875;52.492;6.860;2023-11-19T02:45:06;35.47;;;11.60;;
3718;SDS011;1875;52.492;6.860;2023-11-19T02:47:37;30.20;;;11.57;;
3718;SDS011;1875;52.492;6.860;2023-11-19T02:50:05;39.08;;;13.35;;
3718;SDS011;1875;52.492;6.860;2023-11-19T02:52:40;43.50;;;14.68;;
3718;SDS011;1875;52.492;6.860;2023-11-19T02:55:08;43.90;;;12.10;;
3718;SDS011;1875;52.492;6.860;2023-11-19T02:57:39;44.00;;;11.63;;
3718;SDS011;1875;52.492;6.860;2023-11-19T03:00:14;33.47;;;11.00;;
3718;SDS011;1875;52.492;6.860;2023-11-19T03:02:43;45.03;;;12.63;;
3718;SDS011;1875;52.492;6.860;2023-11-19T03:05:13;37.00;;;10.75;;
3718;SDS011;1875;52.492;6.860;2023-11-19T03:07:43;27.00;;;10.15;;
3718;SDS011;1875;52.492;6.860;2023-11-19T03:10:11;40.58;;;9.43;;
3718;SDS011;1875;52.492;6.860;2023-11-19T03:12:40;31.58;;;10.20;;
3718;SDS011;1875;52.492;6.860;2023-11-19T03:15:08;28.70;;;10.57;;
3718;SDS011;1875;52.492;6.860;2023-11-19T03:17:39;38.85;;;11.88;;
3718;SDS011;1875;52.492;6.860;2023-11-19T03:20:09;41.85;;;10.05;;
3718;SDS011;1875;52.492;6.860;2023-11-19T03:22:41;36.97;;;10.50;;
3718;SDS011;1875;52.492;6.860;2023-11-19T03:25:10;40.67;;;11.05;;
3718;SDS011;1875;52.492;6.860;2023-11-19T03:27:39;46.45;;;12.23;;
3718;SDS011;1875;52.492;6.860;2023-11-19T03:30:09;30.13;;;9.27;;
3718;SDS011;1875;52.492;6.860;2023-11-19T03:32:39;27.15;;;9.18;;
3718;SDS011;1875;52.492;6.860;2023-11-19T03:37:36;39.38;;;10.32;;
3718;SDS011;1875;52.492;6.860;2023-11-19T03:40:04;38.20;;;9.93;;
3718;SDS011;1875;52.492;6.860;2023-11-19T03:45:01;32.45;;;9.10;;
3718;SDS011;1875;52.492;6.860;2023-11-19T03:47:30;31.52;;;8.15;;
3718;SDS011;1875;52.492;6.860;2023-11-19T03:49:58;28.25;;;7.90;;
3718;SDS011;1875;52.492;6.860;2023-11-19T03:52:26;43.45;;;9.40;;
3718;SDS011;1875;52.492;6.860;2023-11-19T03:54:55;35.10;;;9.05;;
3718;SDS011;1875;52.492;6.860;2023-11-19T03:57:23;33.55;;;8.40;;
3718;SDS011;1875;52.492;6.860;2023-11-19T03:59:51;45.70;;;10.43;;
3718;SDS011;1875;52.492;6.860;2023-11-19T04:02:19;41.22;;;10.30;;
3718;SDS011;1875;52.492;6.860;2023-11-19T04:04:47;44.90;;;10.10;;
3718;SDS011;1875;52.492;6.860;2023-11-19T04:07:17;34.83;;;8.80;;
3718;SDS011;1875;52.492;6.860;2023-11-19T04:09:45;41.40;;;8.55;;
3718;SDS011;1875;52.492;6.860;2023-11-19T04:12:14;40.08;;;7.72;;
3718;SDS011;1875;52.492;6.860;2023-11-19T04:14:42;40.58;;;9.52;;
3718;SDS011;1875;52.492;6.860;2023-11-19T04:17:10;33.30;;;7.80;;
3718;SDS011;1875;52.492;6.860;2023-11-19T04:19:38;31.85;;;7.25;;
3718;SDS011;1875;52.492;6.860;2023-11-19T04:22:08;35.13;;;8.15;;
3718;SDS011;1875;52.492;6.860;2023-11-19T04:24:37;30.92;;;7.70;;
3718;SDS011;1875;52.492;6.860;2023-11-19T04:27:07;40.20;;;8.70;;
3718;SDS011;1875;52.492;6.860;2023-11-19T04:29:35;35.67;;;7.10;;
3718;SDS011;1875;52.492;6.860;2023-11-19T04:32:03;34.60;;;7.40;;
3718;SDS011;1875;52.492;6.860;2023-11-19T04:34:32;36.38;;;7.75;;
3718;SDS011;1875;52.492;6.860;2023-11-19T04:37:00;39.80;;;8.80;;
3718;SDS011;1875;52.492;6.860;2023-11-19T04:39:32;32.15;;;8.38;;
3718;SDS011;1875;52.492;6.860;2023-11-19T04:42:02;33.50;;;8.43;;
3718;SDS011;1875;52.492;6.860;2023-11-19T04:44:33;37.40;;;8.05;;
3718;SDS011;1875;52.492;6.860;2023-11-19T04:47:01;27.67;;;6.75;;
3718;SDS011;1875;52.492;6.860;2023-11-19T04:49:29;32.97;;;7.43;;
3718;SDS011;1875;52.492;6.860;2023-11-19T04:51:57;42.35;;;8.45;;
3718;SDS011;1875;52.492;6.860;2023-11-19T04:54:25;42.05;;;8.93;;
3718;SDS011;1875;52.492;6.860;2023-11-19T04:56:53;57.13;;;9.32;;
3718;SDS011;1875;52.492;6.860;2023-11-19T04:59:23;37.03;;;7.75;;
3718;SDS011;1875;52.492;6.860;2023-11-19T05:04:18;44.72;;;8.40;;
3718;SDS011;1875;52.492;6.860;2023-11-19T05:06:47;45.63;;;9.40;;
3718;SDS011;1875;52.492;6.860;2023-11-19T05:09:15;31.45;;;6.15;;
3718;SDS011;1875;52.492;6.860;2023-11-19T05:11:43;36.38;;;7.28;;
3718;SDS011;1875;52.492;6.860;2023-11-19T05:14:13;36.38;;;7.70;;
3718;SDS011;1875;52.492;6.860;2023-11-19T05:16:44;29.25;;;6.88;;
3718;SDS011;1875;52.492;6.860;2023-11-19T05:19:12;38.42;;;7.63;;
3718;SDS011;1875;52.492;6.860;2023-11-19T05:21:41;29.55;;;6.68;;
3718;SDS011;1875;52.492;6.860;2023-11-19T05:24:10;44.92;;;7.18;;
3718;SDS011;1875;52.492;6.860;2023-11-19T05:26:39;47.58;;;7.07;;
3718;SDS011;1875;52.492;6.860;2023-11-19T05:29:07;37.28;;;7.07;;
3718;SDS011;1875;52.492;6.860;2023-11-19T05:31:35;43.83;;;6.78;;
3718;SDS011;1875;52.492;6.860;2023-11-19T05:34:06;35.20;;;6.63;;
3718;SDS011;1875;52.492;6.860;2023-11-19T05:36:34;38.28;;;6.50;;
3718;SDS011;1875;52.492;6.860;2023-11-19T05:39:02;40.03;;;7.65;;
3718;SDS011;1875;52.492;6.860;2023-11-19T05:41:31;21.13;;;4.38;;
3718;SDS011;1875;52.492;6.860;2023-11-19T05:43:59;36.85;;;6.22;;
3718;SDS011;1875;52.492;6.860;2023-11-19T05:46:28;38.17;;;6.40;;
3718;SDS011;1875;52.492;6.860;2023-11-19T05:48:56;35.25;;;5.30;;
3718;SDS011;1875;52.492;6.860;2023-11-19T05:51:25;34.63;;;5.82;;
3718;SDS011;1875;52.492;6.860;2023-11-19T05:56:22;38.90;;;6.15;;
3718;SDS011;1875;52.492;6.860;2023-11-19T05:58:51;34.85;;;6.53;;
3718;SDS011;1875;52.492;6.860;2023-11-19T06:01:19;44.05;;;7.25;;
3718;SDS011;1875;52.492;6.860;2023-11-19T06:03:47;25.52;;;4.22;;
3718;SDS011;1875;52.492;6.860;2023-11-19T06:06:17;28.38;;;4.07;;
3718;SDS011;1875;52.492;6.860;2023-11-19T06:08:46;36.75;;;6.05;;
3718;SDS011;1875;52.492;6.860;2023-11-19T06:11:14;22.70;;;5.05;;
3718;SDS011;1875;52.492;6.860;2023-11-19T06:13:45;33.67;;;6.60;;
3718;SDS011;1875;52.492;6.860;2023-11-19T06:16:14;37.42;;;6.38;;
3718;SDS011;1875;52.492;6.860;2023-11-19T06:18:42;40.70;;;6.05;;
3718;SDS011;1875;52.492;6.860;2023-11-19T06:21:11;34.85;;;5.53;;
3718;SDS011;1875;52.492;6.860;2023-11-19T06:23:39;44.60;;;7.97;;
3718;SDS011;1875;52.492;6.860;2023-11-19T06:26:08;31.70;;;6.28;;
3718;SDS011;1875;52.492;6.860;2023-11-19T06:28:36;35.78;;;3.97;;
3718;SDS011;1875;52.492;6.860;2023-11-19T06:31:04;33.20;;;5.00;;
3718;SDS011;1875;52.492;6.860;2023-11-19T06:33:33;37.50;;;7.15;;
3718;SDS011;1875;52.492;6.860;2023-11-19T06:36:01;31.08;;;5.38;;
3718;SDS011;1875;52.492;6.860;2023-11-19T06:38:29;35.53;;;6.35;;
3718;SDS011;1875;52.492;6.860;2023-11-19T06:40:56;30.10;;;4.80;;
3718;SDS011;1875;52.492;6.860;2023-11-19T06:43:26;37.58;;;6.53;;
3718;SDS011;1875;52.492;6.860;2023-11-19T06:46:14;28.15;;;5.40;;
3718;SDS011;1875;52.492;6.860;2023-11-19T06:48:42;28.90;;;7.03;;
3718;SDS011;1875;52.492;6.860;2023-11-19T06:51:11;40.85;;;6.20;;
3718;SDS011;1875;52.492;6.860;2023-11-19T06:53:39;26.88;;;6.03;;
3718;SDS011;1875;52.492;6.860;2023-11-19T06:56:17;25.58;;;4.35;;
3718;SDS011;1875;52.492;6.860;2023-11-19T06:58:46;20.63;;;4.70;;
3718;SDS011;1875;52.492;6.860;2023-11-19T07:01:15;20.67;;;5.50;;
3718;SDS011;1875;52.492;6.860;2023-11-19T07:06:13;32.42;;;5.40;;
3718;SDS011;1875;52.492;6.860;2023-11-19T07:08:41;23.33;;;5.63;;
3718;SDS011;1875;52.492;6.860;2023-11-19T07:11:11;33.88;;;5.45;;
3718;SDS011;1875;52.492;6.860;2023-11-19T07:13:40;33.08;;;4.88;;
3718;SDS011;1875;52.492;6.860;2023-11-19T07:16:10;34.35;;;4.78;;
3718;SDS011;1875;52.492;6.860;2023-11-19T07:21:06;34.33;;;5.68;;
3718;SDS011;1875;52.492;6.860;2023-11-19T07:23:37;25.23;;;4.30;;
3718;SDS011;1875;52.492;6.860;2023-11-19T07:26:05;34.50;;;5.15;;
3718;SDS011;1875;52.492;6.860;2023-11-19T07:28:35;27.52;;;4.35;;
3718;SDS011;1875;52.492;6.860;2023-11-19T07:31:04;28.63;;;4.38;;
3718;SDS011;1875;52.492;6.860;2023-11-19T07:33:35;22.77;;;4.43;;
3718;SDS011;1875;52.492;6.860;2023-11-19T07:36:04;38.40;;;5.00;;
3718;SDS011;1875;52.492;6.860;2023-11-19T07:38:32;31.70;;;3.40;;
3718;SDS011;1875;52.492;6.860;2023-11-19T07:41:00;30.10;;;4.78;;
3718;SDS011;1875;52.492;6.860;2023-11-19T07:43:28;31.63;;;5.53;;
3718;SDS011;1875;52.492;6.860;2023-11-19T07:45:56;31.25;;;6.22;;
3718;SDS011;1875;52.492;6.860;2023-11-19T07:48:25;31.85;;;5.05;;
3718;SDS011;1875;52.492;6.860;2023-11-19T07:50:55;39.17;;;5.60;;
3718;SDS011;1875;52.492;6.860;2023-11-19T07:53:23;26.50;;;4.75;;
3718;SDS011;1875;52.492;6.860;2023-11-19T07:55:51;27.33;;;4.85;;
3718;SDS011;1875;52.492;6.860;2023-11-19T07:58:19;30.20;;;4.75;;
3718;SDS011;1875;52.492;6.860;2023-11-19T08:00:47;26.95;;;5.28;;
3718;SDS011;1875;52.492;6.860;2023-11-19T08:03:15;27.23;;;3.90;;
3718;SDS011;1875;52.492;6.860;2023-11-19T08:05:43;33.00;;;5.90;;
3718;SDS011;1875;52.492;6.860;2023-11-19T08:08:14;33.25;;;4.50;;
3718;SDS011;1875;52.492;6.860;2023-11-19T08:13:10;33.63;;;5.22;;
3718;SDS011;1875;52.492;6.860;2023-11-19T08:15:38;29.83;;;4.55;;
3718;SDS011;1875;52.492;6.860;2023-11-19T08:18:06;26.50;;;4.22;;
3718;SDS011;1875;52.492;6.860;2023-11-19T08:20:35;34.45;;;5.10;;
3718;SDS011;1875;52.492;6.860;2023-11-19T08:23:03;20.17;;;4.20;;
3718;SDS011;1875;52.492;6.860;2023-11-19T08:25:33;30.35;;;6.03;;
3718;SDS011;1875;52.492;6.860;2023-11-19T08:30:30;37.33;;;5.63;;
3718;SDS011;1875;52.492;6.860;2023-11-19T08:32:58;42.47;;;6.68;;
3718;SDS011;1875;52.492;6.860;2023-11-19T08:35:29;30.38;;;4.68;;
3718;SDS011;1875;52.492;6.860;2023-11-19T08:37:57;41.70;;;6.50;;
3718;SDS011;1875;52.492;6.860;2023-11-19T08:40:26;30.10;;;3.67;;
3718;SDS011;1875;52.492;6.860;2023-11-19T08:42:56;30.95;;;5.85;;
3718;SDS011;1875;52.492;6.860;2023-11-19T08:47:52;34.08;;;6.00;;
3718;SDS011;1875;52.492;6.860;2023-11-19T08:50:20;30.65;;;6.32;;
3718;SDS011;1875;52.492;6.860;2023-11-19T08:52:47;40.65;;;6.50;;
3718;SDS011;1875;52.492;6.860;2023-11-19T08:55:15;18.45;;;4.20;;
3718;SDS011;1875;52.492;6.860;2023-11-19T08:57:43;35.03;;;5.25;;
3718;SDS011;1875;52.492;6.860;2023-11-19T09:00:13;29.95;;;4.55;;
3718;SDS011;1875;52.492;6.860;2023-11-19T09:02:41;25.75;;;5.43;;
3718;SDS011;1875;52.492;6.860;2023-11-19T09:05:10;32.92;;;6.25;;
3718;SDS011;1875;52.492;6.860;2023-11-19T09:07:39;26.63;;;4.88;;
3718;SDS011;1875;52.492;6.860;2023-11-19T09:10:07;20.40;;;3.50;;
3718;SDS011;1875;52.492;6.860;2023-11-19T09:12:37;28.75;;;4.88;;
3718;SDS011;1875;52.492;6.860;2023-11-19T09:15:05;14.77;;;3.95;;
3718;SDS011;1875;52.492;6.860;2023-11-19T09:17:35;36.72;;;5.78;;
3718;SDS011;1875;52.492;6.860;2023-11-19T09:20:03;26.20;;;5.32;;
3718;SDS011;1875;52.492;6.860;2023-11-19T09:22:32;25.58;;;4.70;;
3718;SDS011;1875;52.492;6.860;2023-11-19T09:25:00;31.35;;;5.25;;
3718;SDS011;1875;52.492;6.860;2023-11-19T09:27:28;36.47;;;5.82;;
3718;SDS011;1875;52.492;6.860;2023-11-19T09:29:56;30.52;;;5.03;;
3718;SDS011;1875;52.492;6.860;2023-11-19T09:32:25;29.58;;;4.53;;
3718;SDS011;1875;52.492;6.860;2023-11-19T09:34:54;25.10;;;4.85;;
3718;SDS011;1875;52.492;6.860;2023-11-19T09:39:50;23.23;;;4.82;;
3718;SDS011;1875;52.492;6.860;2023-11-19T09:44:47;21.33;;;4.50;;
3718;SDS011;1875;52.492;6.860;2023-11-19T09:47:16;28.20;;;4.55;;
3718;SDS011;1875;52.492;6.860;2023-11-19T09:49:44;27.60;;;4.68;;
3718;SDS011;1875;52.492;6.860;2023-11-19T09:52:14;22.23;;;5.20;;
3718;SDS011;1875;52.492;6.860;2023-11-19T09:59:38;35.85;;;6.10;;
3718;SDS011;1875;52.492;6.860;2023-11-19T10:02:07;42.20;;;6.60;;
3718;SDS011;1875;52.492;6.860;2023-11-19T10:04:37;34.65;;;5.70;;
3718;SDS011;1875;52.492;6.860;2023-11-19T10:07:06;25.73;;;4.32;;
3718;SDS011;1875;52.492;6.860;2023-11-19T10:09:35;33.80;;;5.78;;
3718;SDS011;1875;52.492;6.860;2023-11-19T10:14:32;30.35;;;4.78;;
3718;SDS011;1875;52.492;6.860;2023-11-19T10:17:03;25.25;;;4.38;;
3718;SDS011;1875;52.492;6.860;2023-11-19T10:19:31;28.90;;;5.35;;
3718;SDS011;1875;52.492;6.860;2023-11-19T10:22:02;28.05;;;5.40;;
3718;SDS011;1875;52.492;6.860;2023-11-19T10:24:32;32.70;;;6.65;;
3718;SDS011;1875;52.492;6.860;2023-11-19T10:27:06;34.30;;;6.93;;
3718;SDS011;1875;52.492;6.860;2023-11-19T10:29:36;26.35;;;4.65;;
3718;SDS011;1875;52.492;6.860;2023-11-19T10:32:04;23.23;;;4.38;;
3718;SDS011;1875;52.492;6.860;2023-11-19T10:34:52;31.33;;;5.10;;
3718;SDS011;1875;52.492;6.860;2023-11-19T10:37:27;24.10;;;4.30;;
3718;SDS011;1875;52.492;6.860;2023-11-19T10:39:56;28.75;;;4.95;;
3718;SDS011;1875;52.492;6.860;2023-11-19T10:42:25;24.83;;;5.10;;
3718;SDS011;1875;52.492;6.860;2023-11-19T10:44:53;25.48;;;5.85;;
3718;SDS011;1875;52.492;6.860;2023-11-19T10:47:22;26.15;;;3.95;;
3718;SDS011;1875;52.492;6.860;2023-11-19T10:49:53;22.02;;;4.43;;
3718;SDS011;1875;52.492;6.860;2023-11-19T10:52:22;28.90;;;4.57;;
3718;SDS011;1875;52.492;6.860;2023-11-19T10:54:51;35.03;;;4.95;;
3718;SDS011;1875;52.492;6.860;2023-11-19T10:57:19;23.13;;;3.97;;
3718;SDS011;1875;52.492;6.860;2023-11-19T10:59:51;28.83;;;4.57;;
3718;SDS011;1875;52.492;6.860;2023-11-19T11:02:21;26.13;;;4.72;;
3718;SDS011;1875;52.492;6.860;2023-11-19T11:04:52;31.00;;;4.68;;
3718;SDS011;1875;52.492;6.860;2023-11-19T11:07:21;24.80;;;4.53;;
3718;SDS011;1875;52.492;6.860;2023-11-19T11:10:02;28.90;;;4.05;;
3718;SDS011;1875;52.492;6.860;2023-11-19T11:12:33;30.13;;;4.68;;
3718;SDS011;1875;52.492;6.860;2023-11-19T11:15:04;27.40;;;4.82;;
3718;SDS011;1875;52.492;6.860;2023-11-19T11:17:33;28.88;;;5.25;;
3718;SDS011;1875;52.492;6.860;2023-11-19T11:20:02;37.53;;;4.53;;
3718;SDS011;1875;52.492;6.860;2023-11-19T11:22:31;24.88;;;4.45;;
3718;SDS011;1875;52.492;6.860;2023-11-19T11:25:13;27.58;;;5.75;;
3718;SDS011;1875;52.492;6.860;2023-11-19T11:27:49;28.10;;;4.03;;
3718;SDS011;1875;52.492;6.860;2023-11-19T11:30:28;25.30;;;5.57;;
3718;SDS011;1875;52.492;6.860;2023-11-19T11:33:05;28.05;;;3.97;;
3718;SDS011;1875;52.492;6.860;2023-11-19T11:35:44;24.90;;;3.75;;
3718;SDS011;1875;52.492;6.860;2023-11-19T11:38:21;26.50;;;4.97;;
3718;SDS011;1875;52.492;6.860;2023-11-19T11:43:46;23.25;;;4.38;;
3718;SDS011;1875;52.492;6.860;2023-11-19T11:49:26;21.75;;;4.03;;
3718;SDS011;1875;52.492;6.860;2023-11-19T11:51:57;18.42;;;2.92;;
3718;SDS011;1875;52.492;6.860;2023-11-19T11:54:30;30.95;;;5.97;;
3718;SDS011;1875;52.492;6.860;2023-11-19T11:57:02;25.52;;;5.10;;
3718;SDS011;1875;52.492;6.860;2023-11-19T12:02:21;34.33;;;4.68;;
3718;SDS011;1875;52.492;6.860;2023-11-19T12:04:52;38.38;;;5.07;;
3718;SDS011;1875;52.492;6.860;2023-11-19T12:07:21;29.73;;;4.63;;
3718;SDS011;1875;52.492;6.860;2023-11-19T12:12:20;24.25;;;3.72;;
3718;SDS011;1875;52.492;6.860;2023-11-19T12:15:05;33.95;;;6.30;;
3718;SDS011;1875;52.492;6.860;2023-11-19T12:20:21;35.97;;;5.93;;
3718;SDS011;1875;52.492;6.860;2023-11-19T12:22:52;23.75;;;4.60;;
3718;SDS011;1875;52.492;6.860;2023-11-19T12:25:21;22.55;;;4.75;;
3718;SDS011;1875;52.492;6.860;2023-11-19T12:27:50;25.48;;;3.88;;
3718;SDS011;1875;52.492;6.860;2023-11-19T12:32:49;25.15;;;4.88;;
3718;SDS011;1875;52.492;6.860;2023-11-19T12:35:17;18.58;;;3.25;;
3718;SDS011;1875;52.492;6.860;2023-11-19T12:37:47;27.77;;;4.55;;
3718;SDS011;1875;52.492;6.860;2023-11-19T12:40:17;22.95;;;4.72;;
3718;SDS011;1875;52.492;6.860;2023-11-19T12:42:46;22.23;;;3.28;;
3718;SDS011;1875;52.492;6.860;2023-11-19T12:45:14;17.70;;;4.43;;
3718;SDS011;1875;52.492;6.860;2023-11-19T12:47:43;27.02;;;4.35;;
3718;SDS011;1875;52.492;6.860;2023-11-19T12:50:14;19.88;;;4.55;;
3718;SDS011;1875;52.492;6.860;2023-11-19T12:52:43;22.92;;;4.53;;
3718;SDS011;1875;52.492;6.860;2023-11-19T12:55:24;16.20;;;3.45;;
3718;SDS011;1875;52.492;6.860;2023-11-19T12:57:56;14.65;;;3.45;;
3718;SDS011;1875;52.492;6.860;2023-11-19T13:00:26;25.67;;;4.60;;
3718;SDS011;1875;52.492;6.860;2023-11-19T13:02:55;29.52;;;5.30;;
3718;SDS011;1875;52.492;6.860;2023-11-19T13:08:00;26.38;;;3.70;;
3718;SDS011;1875;52.492;6.860;2023-11-19T13:10:29;21.23;;;4.00;;
3718;SDS011;1875;52.492;6.860;2023-11-19T13:13:04;22.30;;;4.68;;
3718;SDS011;1875;52.492;6.860;2023-11-19T13:15:32;21.05;;;3.85;;
3718;SDS011;1875;52.492;6.860;2023-11-19T13:18:01;46.65;;;4.82;;
3718;SDS011;1875;52.492;6.860;2023-11-19T13:20:30;17.88;;;3.53;;
3718;SDS011;1875;52.492;6.860;2023-11-19T13:22:58;24.30;;;4.10;;
3718;SDS011;1875;52.492;6.860;2023-11-19T13:25:29;28.15;;;4.88;;
3718;SDS011;1875;52.492;6.860;2023-11-19T13:27:58;23.92;;;4.47;;
3718;SDS011;1875;52.492;6.860;2023-11-19T13:30:26;30.10;;;3.85;;
3718;SDS011;1875;52.492;6.860;2023-11-19T13:32:55;28.35;;;5.03;;
3718;SDS011;1875;52.492;6.860;2023-11-19T13:35:23;27.77;;;3.95;;
3718;SDS011;1875;52.492;6.860;2023-11-19T13:37:54;26.02;;;5.05;;
3718;SDS011;1875;52.492;6.860;2023-11-19T13:40:23;18.80;;;4.03;;
3718;SDS011;1875;52.492;6.860;2023-11-19T13:42:51;27.50;;;4.65;;
3718;SDS011;1875;52.492;6.860;2023-11-19T13:45:20;29.02;;;4.95;;
3718;SDS011;1875;52.492;6.860;2023-11-19T13:47:48;16.58;;;3.78;;
3718;SDS011;1875;52.492;6.860;2023-11-19T13:50:16;14.43;;;3.58;;
3718;SDS011;1875;52.492;6.860;2023-11-19T13:52:44;22.15;;;4.18;;
3718;SDS011;1875;52.492;6.860;2023-11-19T13:55:14;24.83;;;4.13;;
3718;SDS011;1875;52.492;6.860;2023-11-19T13:57:43;25.77;;;4.20;;
3718;SDS011;1875;52.492;6.860;2023-11-19T14:00:13;19.90;;;4.00;;
3718;SDS011;1875;52.492;6.860;2023-11-19T14:02:43;26.40;;;3.53;;
3718;SDS011;1875;52.492;6.860;2023-11-19T14:05:11;18.30;;;3.60;;
3718;SDS011;1875;52.492;6.860;2023-11-19T14:07:39;34.97;;;5.05;;
3718;SDS011;1875;52.492;6.860;2023-11-19T14:10:08;18.20;;;4.63;;
3718;SDS011;1875;52.492;6.860;2023-11-19T14:12:37;10.73;;;2.47;;
3718;SDS011;1875;52.492;6.860;2023-11-19T14:15:07;26.65;;;4.82;;
3718;SDS011;1875;52.492;6.860;2023-11-19T14:17:38;26.00;;;4.82;;
3718;SDS011;1875;52.492;6.860;2023-11-19T14:20:07;23.27;;;4.13;;
3718;SDS011;1875;52.492;6.860;2023-11-19T14:22:39;20.33;;;3.97;;
3718;SDS011;1875;52.492;6.860;2023-11-19T14:25:08;21.77;;;4.10;;
3718;SDS011;1875;52.492;6.860;2023-11-19T14:32:37;23.58;;;3.97;;
3718;SDS011;1875;52.492;6.860;2023-11-19T14:35:06;24.60;;;4.90;;
3718;SDS011;1875;52.492;6.860;2023-11-19T14:37:35;27.13;;;5.30;;
3718;SDS011;1875;52.492;6.860;2023-11-19T14:40:03;14.13;;;3.75;;
3718;SDS011;1875;52.492;6.860;2023-11-19T14:42:32;26.58;;;4.45;;
3718;SDS011;1875;52.492;6.860;2023-11-19T14:45:00;19.55;;;4.55;;
3718;SDS011;1875;52.492;6.860;2023-11-19T14:47:30;22.45;;;3.92;;
3718;SDS011;1875;52.492;6.860;2023-11-19T14:49:58;23.25;;;3.97;;
3718;SDS011;1875;52.492;6.860;2023-11-19T14:52:26;21.50;;;3.80;;
3718;SDS011;1875;52.492;6.860;2023-11-19T14:54:54;22.77;;;4.80;;
3718;SDS011;1875;52.492;6.860;2023-11-19T14:57:23;18.55;;;4.22;;
3718;SDS011;1875;52.492;6.860;2023-11-19T14:59:51;35.50;;;4.07;;
3718;SDS011;1875;52.492;6.860;2023-11-19T15:02:19;24.50;;;5.20;;
3718;SDS011;1875;52.492;6.860;2023-11-19T15:04:47;83.55;;;37.50;;
3718;SDS011;1875;52.492;6.860;2023-11-19T15:07:15;23.90;;;4.45;;
3718;SDS011;1875;52.492;6.860;2023-11-19T15:09:43;17.83;;;3.30;;
3718;SDS011;1875;52.492;6.860;2023-11-19T15:12:12;20.27;;;3.75;;
3718;SDS011;1875;52.492;6.860;2023-11-19T15:14:40;22.27;;;7.95;;
3718;SDS011;1875;52.492;6.860;2023-11-19T15:17:08;27.80;;;4.35;;
3718;SDS011;1875;52.492;6.860;2023-11-19T15:19:37;24.73;;;5.05;;
3718;SDS011;1875;52.492;6.860;2023-11-19T15:22:06;31.13;;;4.40;;
3718;SDS011;1875;52.492;6.860;2023-11-19T15:24:37;31.70;;;3.58;;
3718;SDS011;1875;52.492;6.860;2023-11-19T15:27:08;11.68;;;3.85;;
3718;SDS011;1875;52.492;6.860;2023-11-19T15:29:40;19.95;;;3.75;;
3718;SDS011;1875;52.492;6.860;2023-11-19T15:32:08;19.35;;;5.05;;
3718;SDS011;1875;52.492;6.860;2023-11-19T15:34:36;19.52;;;3.90;;
3718;SDS011;1875;52.492;6.860;2023-11-19T15:37:07;15.15;;;4.20;;
3718;SDS011;1875;52.492;6.860;2023-11-19T15:42:03;13.50;;;3.10;;
3718;SDS011;1875;52.492;6.860;2023-11-19T15:44:31;22.92;;;3.58;;
3718;SDS011;1875;52.492;6.860;2023-11-19T15:46:59;22.95;;;4.55;;
3718;SDS011;1875;52.492;6.860;2023-11-19T15:49:27;27.27;;;3.78;;
3718;SDS011;1875;52.492;6.860;2023-11-19T15:51:55;19.65;;;3.25;;
3718;SDS011;1875;52.492;6.860;2023-11-19T15:54:24;17.77;;;3.72;;
3718;SDS011;1875;52.492;6.860;2023-11-19T15:56:52;28.10;;;3.83;;
3718;SDS011;1875;52.492;6.860;2023-11-19T15:59:20;23.60;;;3.35;;
3718;SDS011;1875;52.492;6.860;2023-11-19T16:01:48;22.98;;;3.35;;
3718;SDS011;1875;52.492;6.860;2023-11-19T16:04:16;21.05;;;3.67;;
3718;SDS011;1875;52.492;6.860;2023-11-19T16:06:45;28.08;;;4.18;;
3718;SDS011;1875;52.492;6.860;2023-11-19T16:09:13;19.15;;;4.40;;
3718;SDS011;1875;52.492;6.860;2023-11-19T16:11:43;19.27;;;3.80;;
3718;SDS011;1875;52.492;6.860;2023-11-19T16:14:22;12.07;;;4.13;;
3718;SDS011;1875;52.492;6.860;2023-11-19T16:16:50;35.97;;;4.00;;
3718;SDS011;1875;52.492;6.860;2023-11-19T16:19:19;18.25;;;3.55;;